Martock, United Kingdom
Current Conditions -  °F | °C
As of 3:50 PM on Monday 24 Nov 2014 (Local Time) from EGDY Reporting Station
Scattered Clouds Scattered Clouds  
Wind Chill: 41°   Ceiling: Unl
Heat Index: 45°   Visibility: 6mi
Dew Point: 39°   Wind: 6mph
Humidity: 81%   Direction: 350°N
Pressure: 30.33"   Gusts: NA
Location:  50.97°N, 2.77°W
Report Text: EGDY 241550Z 35005KT 9999 FEW018 SCT200 07/04 Q1027 BLU 6000 BR FEW005 WHT
Loading
Personal Weather Stations






























Interactive Weather Map New forecast layout! Learn more

10-Day Weather Forecast

Advertisements
Track Severe Weather on mobile